Ana Sayfa
METAR-TAF:

METAR-TAF

Havaalanları :

Victoria Falls Havalimanı

Victoria Şelalesi, Zimbabve

Enlem: 18-06S, Boylam: 025-51E, yükseklik: 1061 m

Güncel hava durumu gözlemi

Rapor saat 07:00 UTC de 1 saat ve 22 dakika önce yapıldı.
Rüzgar doğu/kuzeydoğudan 14 kt
Sıcaklık 22°C
Nem 78%
Basınç 1022 hPa
Görüş mesafesi 10 km veya daha fazla
1500 ft yükseklikte parçalı çok bulutlu

METAR: FVFA 200700Z 07014KT 9999 BKN015 22/18 Q1022 NOSIG

Saat: 10:22 (08:22 UTC)


TAF: eksik

4.000'den fazla havaalanı için hava durumu gözlemleri ve tahminleri (METAR ve TAF raporları).

Kullanılabilir istasyonlar harita üzerinde sarı ve kırmızı noktalarla gösterilir.

İstasyonun adını görmek için fareyi noktanın üzerinde gezdirin.

Sonrasında hava gözlem ve tahminlerini görmek için tıklayın.

Haritayı değiştirmek için: yaklaştırmak için siyah artı işaretli yeşil düğmeye ve uzaklaştırmak için de eksi işaretli düğmeye hızla tıklayın; bitişik haritalar için yeşil okları kullanın.


METAR-TAF: